Time;durP1;ratioP1;P1;durP2;ratioP2;P2;SDS_P1;SDS_P2;PMS_P1;PMS_P2;Temp;Humidity;BMP_temperature;BMP_pressure;BME280_temperature;BME280_humidity;BME280_pressure;Samples;Min_cycle;Max_cycle;Signal;HPM_P1;HPM_P2
2022/10/20 00:01:25;;;;;;;19.38;10.20;;;13.40;99.90;;;;;;5074176;28;20493;-72
2022/10/20 00:03:52;;;;;;;20.60;10.38;;;13.40;99.90;;;;;;5073997;28;20032;-71
2022/10/20 00:06:20;;;;;;;24.52;10.05;;;13.40;99.90;;;;;;5074384;28;20111;-71
2022/10/20 00:08:46;;;;;;;17.75;10.35;;;13.30;99.90;;;;;;5074481;28;20071;-71
2022/10/20 00:11:14;;;;;;;21.30;10.75;;;13.40;99.90;;;;;;5074133;28;20035;-72
2022/10/20 00:13:44;;;;;;;24.27;11.27;;;13.40;99.90;;;;;;5056494;28;20036;-71
2022/10/20 00:16:11;;;;;;;18.92;10.80;;;13.30;99.90;;;;;;5056389;28;20040;-72
2022/10/20 00:18:37;;;;;;;19.38;11.45;;;13.00;99.90;;;;;;5059874;28;20012;-72
2022/10/20 00:21:08;;;;;;;20.77;11.18;;;13.00;99.90;;;;;;5074029;28;20033;-72
2022/10/20 00:23:34;;;;;;;18.02;10.55;;;13.10;99.90;;;;;;5073923;28;20086;-72
2022/10/20 00:26:12;;;;;;;18.38;10.77;;;13.20;99.90;;;;;;5073840;28;20103;-72
2022/10/20 00:28:38;;;;;;;22.77;11.15;;;13.20;99.90;;;;;;5073336;28;20025;-72
2022/10/20 00:31:05;;;;;;;22.52;11.13;;;13.30;99.90;;;;;;5073911;28;20081;-72
2022/10/20 00:33:31;;;;;;;30.40;11.52;;;13.40;99.90;;;;;;5073560;28;20484;-72
2022/10/20 00:36:05;;;;;;;23.08;12.13;;;13.20;99.90;;;;;;5073612;28;20031;-72
2022/10/20 00:38:31;;;;;;;26.48;12.73;;;13.10;99.90;;;;;;5073983;28;20408;-71
2022/10/20 00:41:02;;;;;;;19.38;11.55;;;13.00;99.90;;;;;;5073477;28;20388;-71
2022/10/20 00:43:48;;;;;;;19.77;11.50;;;13.00;99.90;;;;;;5073686;28;20381;-72
2022/10/20 00:46:19;;;;;;;19.92;11.82;;;13.00;99.90;;;;;;5060827;28;20029;-70
2022/10/20 00:48:48;;;;;;;20.20;12.02;;;13.00;99.90;;;;;;5073604;28;20064;-71
2022/10/20 00:51:17;;;;;;;20.50;11.38;;;13.10;99.90;;;;;;5073358;28;20032;-71
2022/10/20 00:53:45;;;;;;;23.73;11.88;;;13.00;99.90;;;;;;5073416;28;20033;-71
2022/10/20 00:56:11;;;;;;;23.17;12.80;;;13.10;99.90;;;;;;5073711;28;20026;-72
2022/10/20 00:58:38;;;;;;;23.55;12.55;;;13.10;99.90;;;;;;5073572;28;20036;-70
2022/10/20 01:01:03;;;;;;;25.90;11.73;;;13.10;99.90;;;;;;5072971;28;20528;-70
2022/10/20 01:03:36;;;;;;;23.35;12.35;;;13.10;99.90;;;;;;5072942;28;20120;-72
2022/10/20 01:06:03;;;;;;;20.27;12.35;;;13.00;99.90;;;;;;5055459;28;20020;-68
2022/10/20 01:08:28;;;;;;;23.20;12.90;;;13.20;99.90;;;;;;5072972;28;20032;-69
2022/10/20 01:10:57;;;;;;;22.48;12.63;;;13.10;99.90;;;;;;5073356;28;20097;-71
2022/10/20 01:13:53;;;;;;;20.40;13.40;;;13.10;99.90;;;;;;5072701;28;20056;-67
2022/10/20 01:16:37;;;;;;;22.98;13.52;;;13.10;99.90;;;;;;5055066;28;20469;-67
2022/10/20 01:19:06;;;;;;;25.08;12.73;;;13.10;99.90;;;;;;5073231;28;20025;-67
2022/10/20 01:21:56;;;;;;;21.23;12.45;;;13.00;99.90;;;;;;5073159;28;20032;-67
2022/10/20 01:24:49;;;;;;;22.38;12.60;;;13.10;99.90;;;;;;5062215;28;20115;-69
2022/10/20 01:27:32;;;;;;;21.77;12.77;;;13.00;99.90;;;;;;5072562;28;20032;-67
2022/10/20 01:30:04;;;;;;;22.30;13.07;;;13.10;99.90;;;;;;5072751;28;20060;-67
2022/10/20 01:32:47;;;;;;;22.80;13.40;;;13.00;99.90;;;;;;5072878;28;20032;-67
2022/10/20 01:35:46;;;;;;;22.20;13.98;;;13.20;99.90;;;;;;5072975;28;20043;-67
2022/10/20 01:38:21;;;;;;;19.77;13.02;;;13.00;99.90;;;;;;5072657;28;20032;-67
2022/10/20 01:40:58;;;;;;;20.40;12.68;;;13.00;99.90;;;;;;5070633;28;20025;-67
2022/10/20 01:43:28;;;;;;;23.30;13.00;;;12.80;99.90;;;;;;5065549;28;20040;-71
2022/10/20 01:45:57;;;;;;;20.65;13.43;;;13.00;99.90;;;;;;5072087;28;20033;-68
2022/10/20 01:48:26;;;;;;;20.75;13.73;;;13.00;99.90;;;;;;5072401;28;20020;-70
2022/10/20 01:50:52;;;;;;;20.80;13.02;;;12.90;99.90;;;;;;5072762;28;20104;-69
2022/10/20 01:53:19;;;;;;;25.10;13.77;;;12.80;99.90;;;;;;5072699;28;20104;-68
2022/10/20 01:55:44;;;;;;;21.88;14.00;;;12.70;99.90;;;;;;5072692;28;20369;-67
2022/10/20 01:58:48;;;;;;;22.67;13.52;;;12.70;99.90;;;;;;5072445;28;20039;-68
2022/10/20 02:01:36;;;;;;;18.67;12.35;;;12.60;99.90;;;;;;5061534;28;20033;-71
2022/10/20 02:04:05;;;;;;;20.10;13.07;;;12.70;99.90;;;;;;5072097;28;20043;-70
2022/10/20 02:06:44;;;;;;;19.20;12.88;;;12.80;99.90;;;;;;5054559;28;20075;-69
2022/10/20 02:09:18;;;;;;;20.98;12.93;;;12.80;99.90;;;;;;5072507;28;20028;-68
2022/10/20 02:11:51;;;;;;;21.95;13.43;;;12.90;99.90;;;;;;5072505;28;20028;-70
2022/10/20 02:14:19;;;;;;;25.88;13.38;;;12.80;99.90;;;;;;5071864;28;20350;-70
2022/10/20 02:16:51;;;;;;;22.25;12.75;;;12.80;99.90;;;;;;5072509;28;20598;-68
2022/10/20 02:19:21;;;;;;;21.25;12.10;;;12.80;99.90;;;;;;5072279;28;21903;-71
2022/10/20 02:21:48;;;;;;;20.67;13.45;;;12.80;99.90;;;;;;5072490;28;20032;-70
2022/10/20 02:24:17;;;;;;;26.92;12.70;;;12.90;99.90;;;;;;5072136;28;20507;-71
2022/10/20 02:26:44;;;;;;;23.00;13.65;;;12.90;99.90;;;;;;5072660;28;20385;-68
2022/10/20 02:29:17;;;;;;;20.85;12.68;;;13.00;99.90;;;;;;5053957;28;20404;-67
2022/10/20 02:31:44;;;;;;;23.67;12.43;;;13.00;99.90;;;;;;5072224;28;20025;-72
2022/10/20 02:34:11;;;;;;;16.95;12.15;;;13.00;99.90;;;;;;5072120;28;20385;-71
2022/10/20 02:36:39;;;;;;;17.88;12.27;;;13.00;99.90;;;;;;5071919;28;20029;-71
2022/10/20 02:39:06;;;;;;;19.40;12.15;;;12.90;99.90;;;;;;5054684;28;20084;-72
2022/10/20 02:41:32;;;;;;;20.65;13.20;;;12.90;99.90;;;;;;5072151;28;20027;-72
2022/10/20 02:43:58;;;;;;;23.92;12.75;;;12.90;99.90;;;;;;5053772;28;20120;-70
2022/10/20 02:46:24;;;;;;;21.65;13.18;;;13.00;99.90;;;;;;5071949;28;20100;-69
2022/10/20 02:48:50;;;;;;;23.33;13.30;;;13.20;99.90;;;;;;5071903;28;20037;-67
2022/10/20 02:51:16;;;;;;;19.38;12.43;;;13.20;99.90;;;;;;5073426;28;20025;-69
2022/10/20 02:53:43;;;;;;;21.27;12.70;;;13.10;99.90;;;;;;5075506;28;20017;-67
2022/10/20 02:56:08;;;;;;;17.00;11.75;;;13.20;99.90;;;;;;5075747;28;20111;-68
2022/10/20 02:58:34;;;;;;;19.30;12.90;;;13.10;99.90;;;;;;5075220;28;20532;-68
2022/10/20 03:01:00;;;;;;;21.92;12.82;;;12.90;99.90;;;;;;5075290;28;20037;-71
2022/10/20 03:03:26;;;;;;;18.98;13.38;;;13.00;99.90;;;;;;5075532;28;20477;-71
2022/10/20 03:05:52;;;;;;;19.48;12.10;;;13.00;99.90;;;;;;5075380;28;20051;-68
2022/10/20 03:08:18;;;;;;;19.95;12.40;;;13.00;99.90;;;;;;5075673;28;20086;-69
2022/10/20 03:10:44;;;;;;;24.05;11.82;;;13.00;99.90;;;;;;5075117;28;20103;-68
2022/10/20 03:13:10;;;;;;;21.95;11.45;;;13.10;99.90;;;;;;5075213;28;20048;-67
2022/10/20 03:15:36;;;;;;;21.25;12.02;;;13.10;99.90;;;;;;5075178;28;20016;-66
2022/10/20 03:18:02;;;;;;;20.70;11.73;;;13.30;99.90;;;;;;5075434;28;20089;-68
2022/10/20 03:20:28;;;;;;;21.35;11.95;;;13.20;99.90;;;;;;5075053;28;20020;-67
2022/10/20 03:22:54;;;;;;;20.33;12.05;;;13.30;99.90;;;;;;5075171;28;20484;-68
2022/10/20 03:25:19;;;;;;;20.13;11.20;;;13.30;99.90;;;;;;5075002;28;20036;-67
2022/10/20 03:27:50;;;;;;;22.70;13.48;;;13.30;99.90;;;;;;5074845;28;20029;-70
2022/10/20 03:30:16;;;;;;;19.35;11.10;;;13.40;99.90;;;;;;5075127;28;20104;-69
2022/10/20 03:32:42;;;;;;;15.02;10.93;;;13.40;99.90;;;;;;5074900;28;20028;-68
2022/10/20 03:35:08;;;;;;;17.85;11.85;;;13.40;99.90;;;;;;5075106;28;20036;-68
2022/10/20 03:37:34;;;;;;;23.98;12.05;;;13.40;99.90;;;;;;5074968;28;20033;-68
2022/10/20 03:39:59;;;;;;;16.13;11.18;;;13.40;99.90;;;;;;5074893;28;20032;-67
2022/10/20 03:42:25;;;;;;;21.25;12.07;;;13.40;99.90;;;;;;5074487;28;20025;-67
2022/10/20 03:44:51;;;;;;;17.65;11.45;;;13.60;99.90;;;;;;5074639;28;20045;-68
2022/10/20 03:47:16;;;;;;;22.40;12.32;;;13.40;99.90;;;;;;5074954;28;20037;-67
2022/10/20 03:49:42;;;;;;;19.08;12.07;;;13.40;99.90;;;;;;5056516;28;20048;-66
2022/10/20 03:52:08;;;;;;;21.95;11.32;;;13.40;99.90;;;;;;5074701;28;20066;-70
2022/10/20 03:54:35;;;;;;;22.58;12.20;;;13.40;99.90;;;;;;5074751;28;20021;-67
2022/10/20 03:57:00;;;;;;;16.80;11.82;;;13.40;99.90;;;;;;5074046;28;20071;-71
2022/10/20 03:59:26;;;;;;;18.05;12.02;;;13.20;99.90;;;;;;5074647;28;20048;-72
2022/10/20 04:01:53;;;;;;;22.48;12.68;;;13.10;99.90;;;;;;5074565;28;20036;-69
2022/10/20 04:04:19;;;;;;;21.10;12.35;;;13.00;99.90;;;;;;5073864;28;20471;-71
2022/10/20 04:06:44;;;;;;;22.60;14.10;;;13.00;99.90;;;;;;5074174;28;20056;-70
2022/10/20 04:09:10;;;;;;;21.58;14.15;;;13.00;99.90;;;;;;5074441;28;20025;-70
2022/10/20 04:11:36;;;;;;;18.08;12.75;;;13.00;99.90;;;;;;5073986;28;20028;-70
2022/10/20 04:14:02;;;;;;;22.75;14.15;;;13.10;99.90;;;;;;5074116;28;20434;-70
2022/10/20 04:16:28;;;;;;;22.10;13.95;;;13.10;99.90;;;;;;5074165;28;20028;-71
2022/10/20 04:18:54;;;;;;;26.10;14.02;;;13.10;99.90;;;;;;5074208;28;20021;-69
2022/10/20 04:21:20;;;;;;;24.10;13.95;;;13.00;99.90;;;;;;5073969;28;20024;-67
2022/10/20 04:23:47;;;;;;;18.83;12.88;;;13.00;99.90;;;;;;5073953;28;20068;-67
2022/10/20 04:26:15;;;;;;;17.45;13.02;;;13.00;99.90;;;;;;5073667;28;20032;-70
2022/10/20 04:28:41;;;;;;;20.85;13.95;;;13.00;99.90;;;;;;5073824;28;20032;-71
2022/10/20 04:31:07;;;;;;;22.92;13.90;;;13.00;99.90;;;;;;5073812;28;20019;-72
2022/10/20 04:33:34;;;;;;;21.00;13.63;;;12.90;99.90;;;;;;5073931;28;20032;-72
2022/10/20 04:36:05;;;;;;;20.70;14.63;;;12.80;99.90;;;;;;5073534;28;20059;-71
2022/10/20 04:38:32;;;;;;;24.92;14.40;;;12.90;99.90;;;;;;5073576;28;20036;-72
2022/10/20 04:41:00;;;;;;;20.25;13.88;;;12.90;99.90;;;;;;5073466;28;20112;-71
2022/10/20 04:43:26;;;;;;;22.13;13.75;;;12.90;99.90;;;;;;5055926;28;20028;-72
2022/10/20 04:45:57;;;;;;;22.92;14.95;;;12.90;99.90;;;;;;5073554;28;20115;-72
2022/10/20 04:48:23;;;;;;;22.83;15.25;;;12.90;99.90;;;;;;5073748;28;20099;-72
2022/10/20 04:51:06;;;;;;;26.02;15.00;;;12.90;99.90;;;;;;5073488;28;20032;-71
2022/10/20 04:53:32;;;;;;;22.58;15.60;;;13.00;99.90;;;;;;5073071;28;20492;-72
2022/10/20 04:55:58;;;;;;;20.45;15.40;;;12.90;99.90;;;;;;5073307;28;20465;-71
2022/10/20 04:58:24;;;;;;;25.55;14.45;;;12.90;99.90;;;;;;5073294;28;20051;-71
2022/10/20 05:00:50;;;;;;;23.55;15.45;;;12.80;99.90;;;;;;5073513;28;20020;-72
2022/10/20 05:03:17;;;;;;;23.17;15.65;;;12.90;99.90;;;;;;5073038;28;20461;-72
2022/10/20 05:05:45;;;;;;;24.73;14.70;;;12.80;99.90;;;;;;5073547;28;20020;-72
2022/10/20 05:08:11;;;;;;;24.00;15.32;;;12.90;99.90;;;;;;5072622;28;20031;-71
2022/10/20 05:10:36;;;;;;;30.52;15.70;;;12.80;99.90;;;;;;5073118;28;20436;-72
2022/10/20 05:13:03;;;;;;;25.58;15.10;;;12.60;99.90;;;;;;5073142;28;20021;-72
2022/10/20 05:15:29;;;;;;;24.00;16.25;;;12.70;99.90;;;;;;5074212;28;20494;-67
2022/10/20 05:17:54;;;;;;;21.42;14.48;;;12.70;99.90;;;;;;5073250;28;20028;-72
2022/10/20 05:20:20;;;;;;;22.52;16.60;;;12.70;99.90;;;;;;5072884;28;20029;-72
2022/10/20 05:22:46;;;;;;;26.75;16.30;;;12.70;99.90;;;;;;5072285;28;20032;-71
2022/10/20 05:25:11;;;;;;;26.55;15.73;;;12.60;99.90;;;;;;5072959;28;20036;-72
2022/10/20 05:27:37;;;;;;;31.10;15.75;;;12.60;99.90;;;;;;5072720;28;20038;-72
2022/10/20 05:30:03;;;;;;;23.08;15.77;;;12.60;99.90;;;;;;5073034;28;20033;-72
2022/10/20 05:32:29;;;;;;;26.85;16.60;;;12.60;99.90;;;;;;5072684;28;20021;-72
2022/10/20 05:34:54;;;;;;;24.02;15.95;;;12.70;99.90;;;;;;5073053;28;20111;-72
2022/10/20 05:37:20;;;;;;;28.48;15.52;;;12.60;99.90;;;;;;5072243;28;20021;-71
2022/10/20 05:39:46;;;;;;;25.23;16.45;;;12.60;99.90;;;;;;5072851;28;20067;-71
2022/10/20 05:42:12;;;;;;;24.38;17.10;;;12.70;99.90;;;;;;5054509;28;20016;-71
2022/10/20 05:44:37;;;;;;;31.30;15.68;;;12.70;99.90;;;;;;5072737;28;20078;-68
2022/10/20 05:47:03;;;;;;;21.85;16.52;;;12.70;99.90;;;;;;5072867;28;20040;-67
2022/10/20 05:49:29;;;;;;;31.67;16.27;;;12.70;99.90;;;;;;5072444;28;20032;-70
2022/10/20 05:51:54;;;;;;;27.88;16.63;;;12.70;99.90;;;;;;5072042;28;20119;-71
2022/10/20 05:54:20;;;;;;;23.75;17.55;;;12.60;99.90;;;;;;5072612;28;20028;-72
2022/10/20 05:56:46;;;;;;;24.33;16.52;;;12.60;99.90;;;;;;5072468;28;20507;-69
2022/10/20 05:59:12;;;;;;;28.67;16.98;;;12.60;99.90;;;;;;5072673;28;20041;-71
2022/10/20 06:01:46;;;;;;;21.63;15.23;;;12.60;99.90;;;;;;5062399;28;20040;-71
2022/10/20 06:04:14;;;;;;;27.95;16.77;;;12.60;99.90;;;;;;5066975;28;20121;-68
2022/10/20 06:06:41;;;;;;;28.08;17.60;;;12.60;99.90;;;;;;5044057;28;20109;-68
2022/10/20 06:09:08;;;;;;;24.67;17.60;;;12.60;99.90;;;;;;5069800;28;20082;-66
2022/10/20 06:11:34;;;;;;;22.75;17.25;;;12.70;99.90;;;;;;5071120;28;20040;-71
2022/10/20 06:14:00;;;;;;;26.38;16.58;;;12.60;99.90;;;;;;5071408;28;20077;-69
2022/10/20 06:16:26;;;;;;;23.45;16.35;;;12.60;99.90;;;;;;5070814;28;20123;-66
2022/10/20 06:18:52;;;;;;;21.88;15.77;;;12.70;99.90;;;;;;5071208;28;20461;-68
2022/10/20 06:21:20;;;;;;;27.60;16.65;;;12.70;99.90;;;;;;5071310;28;20082;-67
2022/10/20 06:23:47;;;;;;;30.00;16.63;;;12.90;99.90;;;;;;5071012;28;20048;-69
2022/10/20 06:26:18;;;;;;;22.02;15.77;;;12.90;99.90;;;;;;5047347;28;20036;-66
2022/10/20 06:28:45;;;;;;;27.15;16.10;;;12.90;99.90;;;;;;5070689;28;20047;-67
2022/10/20 06:31:18;;;;;;;20.05;14.80;;;13.00;99.90;;;;;;5055567;28;20029;-66
2022/10/20 06:33:44;;;;;;;23.27;15.77;;;12.90;99.90;;;;;;5074794;28;20043;-66
2022/10/20 06:36:11;;;;;;;27.75;15.30;;;13.20;99.90;;;;;;5074817;28;20017;-67
2022/10/20 06:38:37;;;;;;;22.67;15.70;;;12.90;99.90;;;;;;5074823;28;20354;-67
2022/10/20 06:41:05;;;;;;;24.00;15.65;;;12.90;99.90;;;;;;5075013;28;20028;-67
2022/10/20 06:43:31;;;;;;;25.30;14.77;;;13.00;99.90;;;;;;5074942;28;20107;-66
2022/10/20 06:45:59;;;;;;;19.65;14.77;;;13.10;99.90;;;;;;5075065;28;20143;-71
2022/10/20 06:48:26;;;;;;;20.65;14.77;;;13.10;99.90;;;;;;5074671;28;20166;-69
2022/10/20 06:51:06;;;;;;;23.42;14.98;;;13.00;99.90;;;;;;5067129;28;20043;-66
2022/10/20 06:53:33;;;;;;;24.17;14.93;;;13.00;99.90;;;;;;5070925;28;20017;-68
2022/10/20 06:56:09;;;;;;;34.00;16.52;;;13.00;99.90;;;;;;5072568;28;20079;-67
2022/10/20 06:58:36;;;;;;;21.33;15.93;;;13.00;99.90;;;;;;5064073;28;20068;-67
2022/10/20 07:01:08;;;;;;;27.40;16.15;;;13.10;99.90;;;;;;5070384;28;20501;-66
2022/10/20 07:03:35;;;;;;;20.17;15.02;;;13.20;99.90;;;;;;5062922;28;20040;-67
2022/10/20 07:06:03;;;;;;;25.88;15.48;;;13.10;99.90;;;;;;5068705;28;20021;-66
2022/10/20 07:08:31;;;;;;;21.63;14.80;;;13.10;99.90;;;;;;5069849;28;20033;-67
2022/10/20 07:10:58;;;;;;;23.73;15.35;;;13.20;99.90;;;;;;5065280;28;20028;-69
2022/10/20 07:13:24;;;;;;;24.15;14.73;;;13.20;99.90;;;;;;5075249;28;20040;-67
2022/10/20 07:15:53;;;;;;;24.77;15.05;;;13.20;99.90;;;;;;5070817;28;20017;-74
2022/10/20 07:18:18;;;;;;;23.42;15.02;;;13.20;99.90;;;;;;5075202;28;20047;-72
2022/10/20 07:20:44;;;;;;;26.00;15.02;;;13.30;99.90;;;;;;5067644;28;20028;-67
2022/10/20 07:23:10;;;;;;;22.95;14.95;;;13.30;99.90;;;;;;5061192;28;20021;-68
2022/10/20 07:25:36;;;;;;;26.92;15.35;;;13.40;99.90;;;;;;5073435;28;20040;-68
2022/10/20 07:28:01;;;;;;;24.63;13.77;;;13.40;99.90;;;;;;5074883;28;20041;-67
2022/10/20 07:30:27;;;;;;;31.70;15.70;;;13.40;99.90;;;;;;5074748;28;20029;-68
2022/10/20 07:32:53;;;;;;;23.77;15.93;;;13.40;99.90;;;;;;5071173;28;20118;-67
2022/10/20 07:35:19;;;;;;;28.15;15.68;;;13.50;99.90;;;;;;5074787;28;20028;-67
2022/10/20 07:37:44;;;;;;;27.77;14.27;;;13.60;99.90;;;;;;5073695;28;20040;-67
2022/10/20 07:40:10;;;;;;;27.63;14.25;;;13.80;99.90;;;;;;5074686;28;20371;-68
2022/10/20 07:42:36;;;;;;;21.23;14.40;;;13.80;99.90;;;;;;5074754;28;20050;-67
2022/10/20 07:45:02;;;;;;;20.98;13.75;;;13.80;99.90;;;;;;5074645;28;20139;-68
2022/10/20 07:47:28;;;;;;;26.05;14.13;;;14.00;99.90;;;;;;5074516;28;20020;-67
2022/10/20 07:49:53;;;;;;;23.35;14.50;;;13.90;99.90;;;;;;5042655;28;20032;-67
2022/10/20 07:52:19;;;;;;;27.98;14.35;;;13.80;99.90;;;;;;5074827;28;20069;-68
2022/10/20 07:54:45;;;;;;;23.25;13.32;;;14.00;99.90;;;;;;5074619;28;20081;-67
2022/10/20 07:57:10;;;;;;;31.58;15.07;;;13.90;99.90;;;;;;5074530;28;20024;-67
2022/10/20 07:59:36;;;;;;;23.27;13.95;;;14.00;99.90;;;;;;5074157;28;20435;-67
2022/10/20 08:02:02;;;;;;;28.00;15.77;;;13.90;99.90;;;;;;5074172;28;20025;-67
2022/10/20 08:04:30;;;;;;;25.70;16.48;;;13.80;99.90;;;;;;5074713;28;20036;-67
2022/10/20 08:06:57;;;;;;;25.58;15.93;;;14.00;99.90;;;;;;5068839;28;20043;-69
2022/10/20 08:09:22;;;;;;;32.10;17.10;;;14.00;99.90;;;;;;5074759;28;20016;-69
2022/10/20 08:11:48;;;;;;;23.85;14.65;;;14.00;99.90;;;;;;5074220;28;20027;-68
2022/10/20 08:14:14;;;;;;;21.13;14.85;;;14.10;99.90;;;;;;5074444;28;20481;-67
2022/10/20 08:16:40;;;;;;;32.72;14.82;;;14.20;99.90;;;;;;5073828;28;20531;-68
2022/10/20 08:19:06;;;;;;;23.77;14.32;;;14.30;99.90;;;;;;5074142;28;20021;-68
2022/10/20 08:21:31;;;;;;;25.55;14.80;;;14.40;99.90;;;;;;5056063;28;20028;-68
2022/10/20 08:23:57;;;;;;;23.48;13.95;;;14.50;99.90;;;;;;5073909;28;20052;-68
2022/10/20 08:26:25;;;;;;;24.70;14.48;;;14.50;99.90;;;;;;5073873;28;20025;-68
2022/10/20 08:28:52;;;;;;;30.95;14.80;;;14.60;99.90;;;;;;5073908;28;20122;-68
2022/10/20 08:31:19;;;;;;;24.42;14.43;;;14.60;99.90;;;;;;5055825;28;20536;-68
2022/10/20 08:33:45;;;;;;;22.75;14.75;;;14.50;99.90;;;;;;5073859;28;20020;-68
2022/10/20 08:36:13;;;;;;;20.40;14.13;;;14.50;99.90;;;;;;5073708;28;20385;-67
2022/10/20 08:38:40;;;;;;;27.30;13.88;;;14.40;99.90;;;;;;5073840;28;20036;-67
2022/10/20 08:41:15;;;;;;;25.40;14.25;;;14.40;99.90;;;;;;5073473;28;20503;-68
2022/10/20 08:43:41;;;;;;;25.23;12.88;;;14.50;99.90;;;;;;5073530;28;20040;-68
2022/10/20 08:46:14;;;;;;;24.15;12.20;;;14.50;99.90;;;;;;5073246;28;20141;-68
2022/10/20 08:48:41;;;;;;;17.38;12.23;;;14.70;99.90;;;;;;5073164;28;20028;-68
2022/10/20 08:51:16;;;;;;;18.17;11.75;;;14.70;99.90;;;;;;5073367;28;20111;-67
2022/10/20 08:53:42;;;;;;;22.90;11.70;;;14.60;99.90;;;;;;5073334;28;20028;-67
2022/10/20 08:56:12;;;;;;;21.83;12.43;;;14.60;99.90;;;;;;5073628;28;20499;-67
2022/10/20 08:58:45;;;;;;;21.30;11.88;;;14.70;99.90;;;;;;5073280;28;20465;-67
2022/10/20 09:01:34;;;;;;;31.15;12.75;;;14.80;99.90;;;;;;5073257;28;20028;-67
2022/10/20 09:04:22;;;;;;;22.00;11.95;;;14.80;99.90;;;;;;5073270;28;20132;-67
2022/10/20 09:06:54;;;;;;;27.85;12.45;;;14.90;99.90;;;;;;5055243;28;20393;-69
2022/10/20 09:09:23;;;;;;;23.40;12.55;;;14.90;99.90;;;;;;5073193;28;20097;-67
2022/10/20 09:11:50;;;;;;;24.48;12.65;;;15.00;99.90;;;;;;5072979;28;20032;-67
2022/10/20 09:14:15;;;;;;;23.20;12.48;;;15.10;99.90;;;;;;5055175;28;20036;-67
2022/10/20 09:16:45;;;;;;;33.83;15.75;;;15.10;99.90;;;;;;5047441;28;20024;-67
2022/10/20 09:19:19;;;;;;;34.25;15.48;;;15.10;99.90;;;;;;5072911;28;20071;-69
2022/10/20 09:21:57;;;;;;;25.27;14.75;;;15.20;99.90;;;;;;5072890;28;20036;-68
2022/10/20 09:24:28;;;;;;;28.85;15.07;;;15.20;99.90;;;;;;5054820;28;20477;-68
2022/10/20 09:26:54;;;;;;;28.15;15.57;;;15.20;99.90;;;;;;5072786;28;20037;-68
2022/10/20 09:29:32;;;;;;;27.70;14.15;;;15.20;99.90;;;;;;5072901;28;20369;-68
2022/10/20 09:31:58;;;;;;;33.65;14.43;;;15.30;99.90;;;;;;5072905;28;20071;-67
2022/10/20 09:34:32;;;;;;;23.40;13.65;;;15.40;99.90;;;;;;5072811;28;20422;-68
2022/10/20 09:37:10;;;;;;;22.48;12.98;;;15.40;99.90;;;;;;5072831;28;20050;-68
2022/10/20 09:39:38;;;;;;;21.00;12.68;;;15.40;99.90;;;;;;5072946;28;20097;-68
2022/10/20 09:42:13;;;;;;;19.58;12.40;;;15.40;99.90;;;;;;5072818;28;20556;-68
2022/10/20 09:45:16;;;;;;;24.75;13.15;;;15.40;99.90;;;;;;5072248;28;20561;-68
2022/10/20 09:47:46;;;;;;;25.38;12.32;;;15.40;99.90;;;;;;5072589;28;20066;-68
2022/10/20 09:50:39;;;;;;;22.20;13.20;;;15.30;99.90;;;;;;5072577;28;20024;-68
2022/10/20 09:53:06;;;;;;;;;;;15.30;99.90;;;;;;5072952;28;20025;-68
2022/10/20 09:55:33;;;;;;;26.08;13.07;;;15.40;99.90;;;;;;5054721;28;19916;-68
2022/10/20 09:58:02;;;;;;;21.25;12.60;;;15.40;99.90;;;;;;5072195;28;20033;-68
2022/10/20 10:00:32;;;;;;;27.95;14.00;;;15.50;99.90;;;;;;5071763;28;20100;-68
2022/10/20 10:03:13;;;;;;;32.95;14.85;;;15.50;99.90;;;;;;5072515;28;20079;-68
2022/10/20 10:05:39;;;;;;;29.17;14.07;;;15.50;99.90;;;;;;5072387;28;20056;-68
2022/10/20 10:08:13;;;;;;;26.92;13.45;;;15.50;99.90;;;;;;5072460;28;20033;-68
2022/10/20 10:10:39;;;;;;;23.85;12.60;;;15.40;99.90;;;;;;5072162;28;20469;-68
2022/10/20 10:13:05;;;;;;;21.33;13.55;;;15.40;99.90;;;;;;5072125;28;20056;-68
2022/10/20 10:15:37;;;;;;;20.70;13.73;;;15.50;99.90;;;;;;5072549;28;20029;-68
2022/10/20 10:18:21;;;;;;;23.75;14.77;;;15.50;99.90;;;;;;5072271;28;20037;-68
2022/10/20 10:20:55;;;;;;;23.73;16.15;;;15.40;99.90;;;;;;5072133;28;20078;-68
2022/10/20 10:23:26;;;;;;;29.45;18.25;;;15.40;99.90;;;;;;5072056;28;20044;-68
2022/10/20 10:25:52;;;;;;;26.37;18.17;;;15.30;99.90;;;;;;5071981;28;20033;-68
2022/10/20 10:28:37;;;;;;;30.02;17.92;;;15.40;99.90;;;;;;5071526;28;20024;-68
2022/10/20 10:31:15;;;;;;;28.90;18.88;;;15.60;99.90;;;;;;5071898;28;20573;-68
2022/10/20 10:33:41;;;;;;;38.17;19.05;;;15.60;99.90;;;;;;5072095;28;20485;-67
2022/10/20 10:36:36;;;;;;;27.42;17.13;;;15.70;99.90;;;;;;5072029;28;20167;-68
2022/10/20 10:39:06;;;;;;;30.52;16.55;;;15.70;99.90;;;;;;5071721;28;20036;-68
2022/10/20 10:41:40;;;;;;;26.75;14.38;;;15.80;99.90;;;;;;5071736;28;20535;-67
2022/10/20 10:44:33;;;;;;;23.33;13.70;;;15.80;99.90;;;;;;5053951;28;20040;-67
2022/10/20 10:46:59;;;;;;;35.58;14.65;;;15.90;99.90;;;;;;5044099;28;20040;-70
2022/10/20 10:49:48;;;;;;;23.08;13.30;;;15.90;99.90;;;;;;5053957;28;20028;-67
2022/10/20 10:52:20;;;;;;;22.80;12.70;;;15.90;99.90;;;;;;5058725;28;20028;-67
2022/10/20 10:55:15;;;;;;;27.02;12.68;;;15.90;99.90;;;;;;5071532;28;20160;-68
2022/10/20 10:58:05;;;;;;;21.83;11.57;;;15.90;99.90;;;;;;5054253;28;20090;-68
2022/10/20 11:00:52;;;;;;;21.77;12.48;;;16.00;99.90;;;;;;5071663;28;20054;-69
2022/10/20 11:03:20;;;;;;;20.23;11.90;;;16.00;99.90;;;;;;5071606;28;20464;-68
2022/10/20 11:05:53;;;;;;;21.05;12.55;;;16.10;99.90;;;;;;5053802;28;20445;-68
2022/10/20 11:08:51;;;;;;;21.13;12.15;;;16.20;99.90;;;;;;5053839;28;20028;-68
2022/10/20 11:11:47;;;;;;;21.35;11.73;;;16.30;99.90;;;;;;4991135;28;20084;-68
2022/10/20 11:14:44;;;;;;;22.50;12.13;;;16.20;99.90;;;;;;5061631;28;20047;-68
2022/10/20 11:17:22;;;;;;;17.48;11.30;;;16.30;99.90;;;;;;5075383;28;20466;-68
2022/10/20 11:20:22;;;;;;;23.83;12.20;;;16.30;99.90;;;;;;5075004;28;20079;-67
2022/10/20 11:23:20;;;;;;;26.70;11.93;;;16.40;99.90;;;;;;5043852;28;20043;-67
2022/10/20 11:26:05;;;;;;;21.90;12.35;;;16.30;99.90;;;;;;5074060;28;20397;-68
2022/10/20 11:28:43;;;;;;;24.42;12.65;;;16.40;99.90;;;;;;5075154;28;20477;-67
2022/10/20 11:31:38;;;;;;;23.58;10.88;;;16.60;99.90;;;;;;5072124;28;20028;-68
2022/10/20 11:34:10;;;;;;;23.00;9.60;;;17.20;99.90;;;;;;5063143;28;20041;-68
2022/10/20 11:36:50;;;;;;;17.85;8.43;;;17.80;99.90;;;;;;5075066;28;20028;-67
2022/10/20 11:39:24;;;;;;;15.88;8.18;;;18.50;99.90;;;;;;5074673;28;20040;-68
2022/10/20 11:41:57;;;;;;;14.68;6.72;;;18.90;99.90;;;;;;5074780;28;20488;-68
2022/10/20 11:44:43;;;;;;;14.32;7.57;;;19.10;99.90;;;;;;5074775;28;20396;-68
2022/10/20 11:47:20;;;;;;;16.55;7.68;;;19.60;99.90;;;;;;5074566;28;20021;-68
2022/10/20 11:49:46;;;;;;;14.93;7.38;;;19.30;99.90;;;;;;5074581;28;20033;-68
2022/10/20 11:52:46;;;;;;;16.85;7.38;;;19.60;99.90;;;;;;5074631;28;20028;-68
2022/10/20 11:55:53;;;;;;;22.00;8.38;;;19.40;99.90;;;;;;5070089;28;20504;-69
2022/10/20 11:58:40;;;;;;;15.90;8.82;;;18.80;99.90;;;;;;4993195;28;20050;-69
2022/10/20 12:01:36;;;;;;;16.83;8.57;;;18.80;99.90;;;;;;5072900;28;20036;-69
2022/10/20 12:04:35;;;;;;;21.25;9.43;;;18.50;99.90;;;;;;5060337;28;20047;-70
2022/10/20 12:07:34;;;;;;;16.67;8.63;;;18.40;99.90;;;;;;5073878;28;20037;-67
2022/10/20 12:10:39;;;;;;;16.65;8.38;;;18.40;99.90;;;;;;5073986;28;20131;-68
2022/10/20 12:13:29;;;;;;;14.77;7.65;;;18.60;99.90;;;;;;5058859;28;20206;-67
2022/10/20 12:15:55;;;;;;;16.05;8.27;;;18.60;99.90;;;;;;5078552;28;20043;-67
2022/10/20 12:18:31;;;;;;;20.83;7.35;;;18.60;99.90;;;;;;5073252;28;20037;-67
2022/10/20 12:21:01;;;;;;;21.50;8.52;;;18.70;99.90;;;;;;5072952;28;20044;-67
2022/10/20 12:23:43;;;;;;;13.55;6.45;;;19.20;99.90;;;;;;5072295;28;20686;-67
2022/10/20 12:26:33;;;;;;;13.88;6.10;;;19.90;99.90;;;;;;5070708;28;20040;-67
2022/10/20 12:29:02;;;;;;;16.58;5.35;;;20.90;99.90;;;;;;5072656;28;20074;-67
2022/10/20 12:32:05;;;;;;;11.32;4.63;;;21.70;99.90;;;;;;5072099;28;20044;-67
2022/10/20 12:34:39;;;;;;;13.35;5.47;;;22.00;99.90;;;;;;5071971;28;20042;-68
2022/10/20 12:37:28;;;;;;;7.60;4.07;;;22.60;99.90;;;;;;5072501;28;20082;-67
2022/10/20 12:40:27;;;;;;;12.52;4.38;;;23.10;99.90;;;;;;5072831;28;20040;-67
2022/10/20 12:42:54;;;;;;;13.88;3.90;;;23.00;99.90;;;;;;5069493;28;20109;-67
2022/10/20 12:45:43;;;;;;;12.90;3.38;;;23.10;99.90;;;;;;5072750;28;20052;-69
2022/10/20 12:48:19;;;;;;;8.02;3.20;;;22.80;99.90;;;;;;5060805;28;20028;-67
2022/10/20 12:50:48;;;;;;;11.40;4.30;;;22.60;99.90;;;;;;5061666;28;20111;-67